Time;durP1;ratioP1;P1;durP2;ratioP2;P2;SDS_P1;SDS_P2;PMS_P1;PMS_P2;Temp;Humidity;BMP_temperature;BMP_pressure;BME280_temperature;BME280_humidity;BME280_pressure;Samples;Min_cycle;Max_cycle;Signal;HPM_P1;HPM_P2
2023/12/17 00:02:23;;;;;;;12.90;7.60;;;;;;;8.19;89.24;102347.69;108121;1288;22002;-62
2023/12/17 00:04:49;;;;;;;15.60;7.70;;;;;;;8.17;89.56;102349.89;108099;1286;22011;-61
2023/12/17 00:07:15;;;;;;;15.80;8.60;;;;;;;8.16;89.63;102346.03;108066;1288;21997;-62
2023/12/17 00:09:40;;;;;;;14.20;7.90;;;;;;;8.16;89.54;102348.33;108111;1288;21989;-61
2023/12/17 00:12:06;;;;;;;16.50;8.60;;;;;;;8.18;89.47;102349.95;107368;1288;1002379;-61
2023/12/17 00:14:32;;;;;;;14.90;9.20;;;;;;;8.20;89.50;102349.65;108086;1285;22001;-62
2023/12/17 00:16:57;;;;;;;14.90;9.10;;;;;;;8.20;89.48;102350.88;108100;1288;21989;-62
2023/12/17 00:19:23;;;;;;;16.90;8.90;;;;;;;8.22;89.53;102356.34;108104;1288;21999;-62
2023/12/17 00:21:49;;;;;;;16.60;9.30;;;;;;;8.24;89.64;102358.66;108118;1288;22023;-62
2023/12/17 00:24:14;;;;;;;16.50;9.20;;;;;;;8.26;89.54;102361.70;108144;1288;21987;-60
2023/12/17 00:26:40;;;;;;;14.20;9.20;;;;;;;8.27;89.66;102361.91;108089;1281;21985;-62
2023/12/17 00:29:06;;;;;;;15.20;8.90;;;;;;;8.26;89.60;102362.94;108086;1288;22021;-60
2023/12/17 00:31:31;;;;;;;16.20;9.70;;;;;;;8.26;89.51;102362.06;108113;1288;21998;-60
2023/12/17 00:33:57;;;;;;;14.00;8.10;;;;;;;8.25;89.67;102362.55;108085;1288;21986;-61
2023/12/17 00:36:22;;;;;;;14.80;9.00;;;;;;;8.17;90.23;102362.48;108128;1288;21958;-60
2023/12/17 00:38:48;;;;;;;14.40;8.00;;;;;;;8.12;90.72;102364.98;108090;1288;21995;-60
2023/12/17 00:41:14;;;;;;;16.20;9.30;;;;;;;8.11;90.70;102362.33;108086;1288;22031;-62
2023/12/17 00:43:39;;;;;;;15.70;9.90;;;;;;;8.08;90.88;102363.61;108135;1288;21999;-63
2023/12/17 00:46:05;;;;;;;15.90;9.30;;;;;;;8.06;90.86;102364.98;108109;1288;21996;-60
2023/12/17 00:48:31;;;;;;;13.30;8.00;;;;;;;8.04;91.16;102368.22;108103;1288;22065;-62
2023/12/17 00:50:57;;;;;;;17.00;9.70;;;;;;;8.02;91.40;102369.73;108135;1278;22036;-63
2023/12/17 00:53:22;;;;;;;16.50;9.40;;;;;;;7.98;91.86;102368.05;108098;1288;21995;-63
2023/12/17 00:55:48;;;;;;;15.50;8.20;;;;;;;8.03;91.54;102367.35;108096;1287;21978;-63
2023/12/17 00:58:13;;;;;;;15.20;9.40;;;;;;;8.08;91.20;102368.88;108127;1286;22001;-60
2023/12/17 01:00:39;;;;;;;15.20;8.70;;;;;;;8.11;91.04;102367.56;108087;1288;23709;-63
2023/12/17 01:03:04;;;;;;;14.70;8.00;;;;;;;8.11;91.37;102368.27;108123;1288;21988;-62
2023/12/17 01:05:33;;;;;;;16.20;9.30;;;;;;;8.11;91.35;102367.23;108120;1288;22026;-60
2023/12/17 01:07:59;;;;;;;15.60;8.60;;;;;;;8.11;91.26;102361.80;108174;1288;22022;-61
2023/12/17 01:10:25;;;;;;;16.70;8.30;;;;;;;8.11;91.25;102362.67;108129;1277;21998;-59
2023/12/17 01:12:50;;;;;;;16.10;9.10;;;;;;;8.08;91.56;102360.84;108132;1288;21986;-63
2023/12/17 01:15:16;;;;;;;15.00;8.40;;;;;;;8.11;91.61;102361.80;108121;1288;21997;-62
2023/12/17 01:17:41;;;;;;;15.50;8.30;;;;;;;8.14;91.60;102357.36;108154;1288;21995;-62
2023/12/17 01:20:08;;;;;;;16.00;9.60;;;;;;;8.17;91.57;102349.92;108118;1288;21989;-60
2023/12/17 01:22:33;;;;;;;17.00;9.50;;;;;;;8.20;91.42;102340.20;108135;1288;21989;-63
2023/12/17 01:24:59;;;;;;;15.80;9.80;;;;;;;8.22;91.33;102333.60;108143;1288;21988;-62
2023/12/17 01:27:25;;;;;;;17.70;9.10;;;;;;;8.22;91.27;102332.20;108101;1286;22002;-62
2023/12/17 01:29:50;;;;;;;15.20;9.30;;;;;;;8.23;91.21;102329.95;108097;1278;22026;-59
2023/12/17 01:32:16;;;;;;;16.70;10.00;;;;;;;8.25;90.94;102328.27;108137;1288;21989;-59
2023/12/17 01:34:41;;;;;;;17.50;10.20;;;;;;;8.26;91.15;102323.92;108127;1283;21992;-62
2023/12/17 01:37:07;;;;;;;18.60;10.80;;;;;;;8.26;91.10;102322.70;108117;1282;22008;-63
2023/12/17 01:39:33;;;;;;;20.10;11.40;;;;;;;8.26;91.20;102315.18;108167;1288;21993;-60
2023/12/17 01:41:59;;;;;;;22.00;10.30;;;;;;;8.25;91.22;102317.09;108112;1287;22024;-60
2023/12/17 01:44:25;;;;;;;17.90;10.70;;;;;;;8.25;91.29;102319.35;108128;1288;21994;-62
2023/12/17 01:46:50;;;;;;;17.10;9.80;;;;;;;8.24;91.28;102319.66;108105;1288;22003;-62
2023/12/17 01:49:16;;;;;;;16.00;10.30;;;;;;;8.24;91.22;102320.17;108113;1288;21995;-60
2023/12/17 01:51:41;;;;;;;15.90;9.70;;;;;;;8.25;91.34;102320.92;108125;1278;22034;-61
2023/12/17 01:54:07;;;;;;;17.30;9.90;;;;;;;8.24;91.49;102321.05;107349;1277;1002957;-60
2023/12/17 01:56:33;;;;;;;17.10;9.80;;;;;;;8.25;91.44;102320.58;108100;1287;21989;-59
2023/12/17 01:58:58;;;;;;;14.90;9.30;;;;;;;8.25;91.49;102321.28;108158;1288;21989;-59
2023/12/17 02:01:24;;;;;;;19.50;10.40;;;;;;;8.26;91.63;102319.73;107967;1288;21986;-63
2023/12/17 02:03:50;;;;;;;16.50;10.40;;;;;;;8.28;91.80;102320.14;107964;1288;21998;-60
2023/12/17 02:06:15;;;;;;;16.00;9.90;;;;;;;8.29;91.78;102319.30;107978;1288;21988;-62
2023/12/17 02:08:41;;;;;;;19.40;10.50;;;;;;;8.29;91.85;102311.59;107992;1288;21978;-59
2023/12/17 02:11:06;;;;;;;17.60;10.80;;;;;;;8.31;91.81;102305.17;108101;1288;21991;-63
2023/12/17 02:13:32;;;;;;;20.40;9.60;;;;;;;8.33;91.88;102299.98;108132;1277;22035;-62
2023/12/17 02:15:58;;;;;;;17.00;10.20;;;;;;;8.35;91.83;102299.70;108108;1288;22024;-59
2023/12/17 02:18:23;;;;;;;13.90;9.70;;;;;;;8.35;91.87;102297.42;108168;1287;21994;-63
2023/12/17 02:20:50;;;;;;;16.20;9.90;;;;;;;8.36;91.95;102292.92;108097;1280;22462;-59
2023/12/17 02:23:15;;;;;;;18.10;10.40;;;;;;;8.40;91.95;102290.02;108208;1281;21993;-59
2023/12/17 02:25:41;;;;;;;17.00;10.90;;;;;;;8.41;91.98;102290.23;107989;1288;22195;-60
2023/12/17 02:28:06;;;;;;;19.80;11.30;;;;;;;8.43;92.12;102290.80;108125;1287;21989;-61
2023/12/17 02:30:32;;;;;;;16.10;10.20;;;;;;;8.43;92.03;102290.45;108138;1287;21986;-62
2023/12/17 02:32:58;;;;;;;19.10;11.40;;;;;;;8.42;91.89;102290.61;108148;1283;21983;-60
2023/12/17 02:35:23;;;;;;;17.80;9.90;;;;;;;8.41;91.78;102285.50;108138;1276;21993;-63
2023/12/17 02:37:49;;;;;;;17.20;9.30;;;;;;;8.40;91.86;102288.45;108135;1287;21992;-65
2023/12/17 02:40:14;;;;;;;19.70;11.70;;;;;;;8.38;91.91;102290.16;108139;1287;21991;-63
2023/12/17 02:42:40;;;;;;;19.80;11.30;;;;;;;8.35;91.99;102294.61;108123;1287;22428;-62
2023/12/17 02:45:07;;;;;;;22.40;10.70;;;;;;;8.30;92.16;102295.73;108102;1287;21995;-59
2023/12/17 02:47:33;;;;;;;18.80;10.40;;;;;;;8.27;92.18;102295.96;108139;1287;21995;-59
2023/12/17 02:49:58;;;;;;;18.80;11.00;;;;;;;8.24;92.38;102293.60;108148;1287;21993;-62
2023/12/17 02:52:26;;;;;;;19.60;11.20;;;;;;;8.20;92.60;102296.14;108166;1287;21998;-62
2023/12/17 02:54:51;;;;;;;17.70;11.20;;;;;;;8.19;92.66;102293.30;108142;1287;21995;-63
2023/12/17 02:57:17;;;;;;;18.50;10.60;;;;;;;8.19;92.71;102298.02;107378;1281;1002538;-64
2023/12/17 02:59:43;;;;;;;17.00;10.80;;;;;;;8.21;92.38;102297.73;108103;1286;21999;-63
2023/12/17 03:02:08;;;;;;;15.90;9.30;;;;;;;8.22;92.16;102296.87;108139;1281;22455;-63
2023/12/17 03:04:34;;;;;;;17.30;9.80;;;;;;;8.21;92.52;102292.30;108118;1281;21998;-60
2023/12/17 03:06:59;;;;;;;15.80;10.40;;;;;;;8.22;92.70;102292.50;108103;1287;22027;-60
2023/12/17 03:09:25;;;;;;;20.10;11.60;;;;;;;8.23;92.81;102294.27;108106;1284;22000;-60
2023/12/17 03:11:50;;;;;;;21.80;11.50;;;;;;;8.25;92.72;102298.70;108091;1287;21995;-63
2023/12/17 03:14:16;;;;;;;19.00;10.30;;;;;;;8.26;93.23;102305.92;108198;1287;22024;-63
2023/12/17 03:16:42;;;;;;;22.20;11.00;;;;;;;8.25;93.31;102310.61;108175;1283;21987;-63
2023/12/17 03:19:08;;;;;;;23.90;12.40;;;;;;;8.26;93.13;102310.30;108124;1287;21994;-62
2023/12/17 03:21:33;;;;;;;16.70;10.00;;;;;;;8.28;93.39;102306.84;108087;1287;22457;-62
2023/12/17 03:24:00;;;;;;;19.30;10.90;;;;;;;8.30;93.58;102307.96;108103;1281;21991;-60
2023/12/17 03:26:25;;;;;;;20.70;11.50;;;;;;;8.35;93.78;102308.28;108137;1287;22026;-63
2023/12/17 03:28:51;;;;;;;19.00;11.20;;;;;;;8.38;93.76;102309.23;108096;1287;21996;-63
2023/12/17 03:31:17;;;;;;;20.30;11.20;;;;;;;8.39;93.73;102310.11;108091;1286;21991;-60
2023/12/17 03:33:43;;;;;;;21.60;11.70;;;;;;;8.39;93.51;102313.44;108101;1287;21997;-61
2023/12/17 03:36:11;;;;;;;19.20;10.80;;;;;;;8.39;93.51;102312.39;108160;1281;22004;-60
2023/12/17 03:38:37;;;;;;;21.00;11.50;;;;;;;8.41;93.62;102318.38;108025;1277;21984;-63
2023/12/17 03:41:02;;;;;;;17.40;11.00;;;;;;;8.42;93.57;102322.09;108097;1287;22463;-60
2023/12/17 03:43:28;;;;;;;21.60;11.90;;;;;;;8.42;93.33;102326.29;107456;1287;1002606;-64
2023/12/17 03:45:54;;;;;;;19.50;11.50;;;;;;;8.38;93.39;102323.55;107421;1276;1003167;-61
2023/12/17 03:48:19;;;;;;;21.10;11.90;;;;;;;8.31;93.25;102325.13;108163;1287;21999;-61
2023/12/17 03:50:45;;;;;;;19.60;11.80;;;;;;;8.27;92.95;102326.93;108139;1284;21992;-60
2023/12/17 03:53:11;;;;;;;23.30;11.30;;;;;;;8.23;92.93;102326.98;108190;1287;21996;-64
2023/12/17 03:55:37;;;;;;;21.30;10.90;;;;;;;8.19;92.94;102323.38;108222;1277;22455;-60
2023/12/17 03:58:03;;;;;;;18.10;11.20;;;;;;;8.19;93.15;102320.40;108217;1287;22507;-61
2023/12/17 04:00:29;;;;;;;20.50;11.50;;;;;;;8.17;93.32;102318.09;108217;1283;22178;-64
2023/12/17 04:02:55;;;;;;;18.50;11.10;;;;;;;8.15;93.12;102318.20;108179;1284;21987;-62
2023/12/17 04:05:21;;;;;;;18.50;11.10;;;;;;;8.12;93.18;102325.64;108224;1276;21996;-64
2023/12/17 04:07:46;;;;;;;22.20;12.50;;;;;;;8.08;93.30;102327.96;108128;1287;21996;-62
2023/12/17 04:10:12;;;;;;;19.30;11.00;;;;;;;8.02;92.99;102325.52;108117;1281;21998;-61
2023/12/17 04:12:37;;;;;;;19.00;10.60;;;;;;;7.99;93.18;102322.63;108079;1287;22083;-64
2023/12/17 04:15:03;;;;;;;18.00;9.90;;;;;;;7.97;93.25;102322.59;108180;1283;22029;-61
2023/12/17 04:17:30;;;;;;;18.70;11.40;;;;;;;7.93;93.05;102320.02;108238;1277;21999;-64
2023/12/17 04:19:56;;;;;;;18.10;10.50;;;;;;;7.87;93.00;102322.99;108113;1288;21998;-63
2023/12/17 04:22:21;;;;;;;21.00;10.80;;;;;;;7.81;92.79;102317.02;108150;1277;21997;-64
2023/12/17 04:24:47;;;;;;;20.00;11.10;;;;;;;7.73;92.57;102314.87;108154;1283;22018;-64
2023/12/17 04:27:13;;;;;;;18.80;10.70;;;;;;;7.67;92.80;102314.33;108114;1284;21987;-65
2023/12/17 04:29:38;;;;;;;23.50;11.70;;;;;;;7.63;92.90;102312.13;108116;1288;21989;-60
2023/12/17 04:32:05;;;;;;;19.40;11.70;;;;;;;7.58;92.73;102313.55;108127;1288;21987;-62
2023/12/17 04:34:30;;;;;;;18.70;11.20;;;;;;;7.52;92.33;102315.80;108157;1288;22032;-60
2023/12/17 04:36:59;;;;;;;19.90;11.60;;;;;;;7.47;92.32;102316.15;108096;1288;21986;-60
2023/12/17 04:39:26;;;;;;;21.00;10.50;;;;;;;7.41;92.32;102315.61;108115;1288;21989;-60
2023/12/17 04:41:51;;;;;;;21.80;11.40;;;;;;;7.38;92.42;102313.43;108078;1288;21994;-64
2023/12/17 04:44:17;;;;;;;19.80;10.40;;;;;;;7.36;92.15;102317.03;108147;1288;22051;-64
2023/12/17 04:46:43;;;;;;;17.90;10.40;;;;;;;7.32;91.96;102317.27;108154;1288;22048;-61
2023/12/17 04:49:08;;;;;;;22.80;11.10;;;;;;;7.28;91.85;102323.41;108041;1278;22001;-63
2023/12/17 04:51:34;;;;;;;19.20;11.50;;;;;;;7.23;91.52;102323.77;108188;1288;22000;-63
2023/12/17 04:53:59;;;;;;;22.20;11.10;;;;;;;7.18;91.62;102327.80;108099;1288;21991;-63
2023/12/17 04:56:25;;;;;;;19.90;11.20;;;;;;;7.11;91.28;102322.86;108129;1283;22023;-62
2023/12/17 04:58:50;;;;;;;22.50;11.60;;;;;;;7.03;91.18;102323.30;108105;1277;22028;-64
2023/12/17 05:01:16;;;;;;;25.20;12.30;;;;;;;6.98;91.15;102322.45;108108;1277;22001;-61
2023/12/17 05:03:42;;;;;;;21.50;13.40;;;;;;;6.93;90.85;102319.13;108100;1288;21991;-60
2023/12/17 05:06:08;;;;;;;25.90;14.30;;;;;;;6.86;91.01;102317.86;108126;1281;21999;-61
2023/12/17 05:08:34;;;;;;;30.20;14.80;;;;;;;6.77;91.04;102317.39;108146;1288;21993;-64
2023/12/17 05:10:59;;;;;;;26.20;14.10;;;;;;;6.71;91.41;102307.40;108152;1281;21991;-63
2023/12/17 05:13:25;;;;;;;23.10;12.70;;;;;;;6.66;91.74;102304.96;108205;1287;21991;-64
2023/12/17 05:15:51;;;;;;;22.60;12.70;;;;;;;6.62;91.75;102302.56;108068;1287;21991;-60
2023/12/17 05:18:16;;;;;;;24.30;13.50;;;;;;;6.59;91.61;102303.66;108113;1281;21998;-60
2023/12/17 05:20:42;;;;;;;21.80;12.40;;;;;;;6.53;91.58;102302.77;108137;1287;22027;-61
2023/12/17 05:23:10;;;;;;;22.20;12.00;;;;;;;6.50;91.77;102302.66;108132;1284;22043;-64
2023/12/17 05:25:36;;;;;;;21.10;11.50;;;;;;;6.48;92.05;102296.14;107422;1287;1002958;-64
2023/12/17 05:28:02;;;;;;;20.20;12.10;;;;;;;6.46;92.61;102296.04;107437;1277;1002824;-64
2023/12/17 05:30:27;;;;;;;21.90;11.80;;;;;;;6.45;92.67;102297.41;107481;1287;1002456;-61
2023/12/17 05:32:53;;;;;;;21.70;12.40;;;;;;;6.45;92.80;102297.94;108156;1287;21995;-63
2023/12/17 05:35:19;;;;;;;23.50;11.80;;;;;;;6.45;93.11;102296.54;108148;1286;21987;-63
2023/12/17 05:37:44;;;;;;;21.70;12.40;;;;;;;6.45;92.93;102293.76;108123;1278;21989;-62
2023/12/17 05:40:10;;;;;;;21.60;11.60;;;;;;;6.46;93.05;102290.66;108115;1288;21992;-62
2023/12/17 05:42:36;;;;;;;20.00;12.00;;;;;;;6.47;93.44;102291.20;108128;1283;22047;-64
2023/12/17 05:45:02;;;;;;;21.30;11.80;;;;;;;6.50;93.55;102292.73;108147;1288;21990;-61
2023/12/17 05:47:30;;;;;;;20.60;12.20;;;;;;;6.54;93.59;102291.30;108147;1288;22031;-62
2023/12/17 05:49:55;;;;;;;18.00;11.60;;;;;;;6.56;93.81;102288.39;107391;1284;1002960;-62
2023/12/17 05:52:21;;;;;;;19.30;10.90;;;;;;;6.58;93.55;102292.63;108085;1283;21993;-59
2023/12/17 05:54:47;;;;;;;19.30;11.20;;;;;;;6.61;93.45;102302.48;108098;1288;22083;-63
2023/12/17 05:57:12;;;;;;;19.50;10.60;;;;;;;6.63;93.46;102304.15;108108;1283;22027;-58
2023/12/17 05:59:38;;;;;;;20.30;11.70;;;;;;;6.67;93.66;102302.52;108149;1281;21998;-63
2023/12/17 06:02:05;;;;;;;19.50;10.80;;;;;;;6.69;93.86;102301.94;108179;1287;21989;-60
2023/12/17 06:04:30;;;;;;;17.00;10.00;;;;;;;6.73;94.21;102302.41;107451;1287;1002314;-60
2023/12/17 06:06:56;;;;;;;18.80;10.70;;;;;;;6.77;94.46;102303.21;108115;1284;22027;-60
2023/12/17 06:09:24;;;;;;;21.80;11.60;;;;;;;6.80;94.73;102300.73;108106;1287;21996;-60
2023/12/17 06:11:49;;;;;;;18.80;10.50;;;;;;;6.86;94.84;102300.20;108229;1287;22011;-63
2023/12/17 06:14:19;;;;;;;21.50;11.90;;;;;;;6.89;95.12;102301.01;108147;1281;22029;-63
2023/12/17 06:16:45;;;;;;;19.80;11.50;;;;;;;6.93;95.15;102309.17;108149;1281;22021;-64
2023/12/17 06:19:11;;;;;;;19.80;11.70;;;;;;;6.97;94.97;102312.48;108192;1287;24186;-61
2023/12/17 06:21:36;;;;;;;17.70;11.00;;;;;;;7.01;94.82;102312.08;108085;1282;21996;-61
2023/12/17 06:24:03;;;;;;;17.50;10.90;;;;;;;7.05;95.10;102312.02;108215;1287;21999;-64
2023/12/17 06:26:29;;;;;;;22.80;11.30;;;;;;;7.07;95.04;102313.67;107399;1287;1003208;-63
2023/12/17 06:28:55;;;;;;;20.10;9.90;;;;;;;7.11;94.89;102312.74;108106;1283;21985;-64
2023/12/17 06:31:21;;;;;;;20.20;11.70;;;;;;;7.13;95.34;102314.89;108151;1274;21993;-64
2023/12/17 06:33:47;;;;;;;19.30;10.80;;;;;;;7.14;95.45;102317.73;108160;1278;22449;-61
2023/12/17 06:36:14;;;;;;;21.00;11.60;;;;;;;7.14;95.32;102321.76;108166;1287;23768;-60
2023/12/17 06:38:40;;;;;;;17.20;10.70;;;;;;;7.14;95.35;102327.16;108220;1287;22761;-61
2023/12/17 06:41:07;;;;;;;21.80;10.70;;;;;;;7.14;95.47;102325.95;107899;1287;124845;-60
2023/12/17 06:43:33;;;;;;;20.60;11.60;;;;;;;7.09;96.00;102328.56;108177;1286;21998;-63
2023/12/17 06:45:59;;;;;;;21.30;11.20;;;;;;;7.13;95.68;102327.83;108079;1286;21984;-62
2023/12/17 06:48:24;;;;;;;17.00;10.30;;;;;;;7.14;96.03;102331.35;108071;1287;21987;-60
2023/12/17 06:50:50;;;;;;;17.70;10.10;;;;;;;7.17;96.03;102331.45;108086;1283;21988;-60
2023/12/17 06:53:17;;;;;;;18.70;11.10;;;;;;;7.19;96.21;102328.36;108123;1283;21992;-61
2023/12/17 06:55:43;;;;;;;18.30;10.50;;;;;;;7.21;96.02;102328.79;108163;1281;22020;-60
2023/12/17 06:58:09;;;;;;;17.20;10.40;;;;;;;7.23;95.79;102330.43;107406;1287;1002910;-61
2023/12/17 07:00:34;;;;;;;19.40;11.70;;;;;;;7.24;96.29;102329.92;108138;1287;22149;-62
2023/12/17 07:03:01;;;;;;;20.90;11.10;;;;;;;7.27;96.59;102328.29;108092;1287;21987;-62
2023/12/17 07:05:26;;;;;;;17.90;10.30;;;;;;;7.36;96.28;102327.15;108131;1287;21991;-64
2023/12/17 07:07:52;;;;;;;17.50;10.90;;;;;;;7.42;96.44;102323.34;108156;1280;21987;-62
2023/12/17 07:10:18;;;;;;;23.70;11.30;;;;;;;7.48;96.57;102321.77;108166;1281;22008;-60
2023/12/17 07:12:43;;;;;;;20.50;12.20;;;;;;;7.52;96.91;102316.13;108267;1287;21985;-63
2023/12/17 07:15:09;;;;;;;18.00;11.10;;;;;;;7.55;97.00;102313.77;108178;1287;22086;-60
2023/12/17 07:17:35;;;;;;;17.40;10.60;;;;;;;7.58;96.92;102317.57;108238;1287;21992;-60
2023/12/17 07:20:01;;;;;;;20.40;11.60;;;;;;;7.63;96.77;102321.19;108175;1283;21984;-60
2023/12/17 07:22:26;;;;;;;18.30;10.50;;;;;;;7.67;96.65;102312.06;108111;1287;21989;-63
2023/12/17 07:24:52;;;;;;;17.80;11.20;;;;;;;7.71;96.72;102309.40;108144;1277;22006;-63
2023/12/17 07:27:17;;;;;;;19.30;11.90;;;;;;;7.75;96.63;102309.86;108090;1284;22022;-63
2023/12/17 07:29:43;;;;;;;20.30;10.70;;;;;;;7.78;96.78;102311.86;108072;1287;21986;-60
2023/12/17 07:32:09;;;;;;;18.20;11.30;;;;;;;7.79;96.99;102311.73;108107;1287;21991;-62
2023/12/17 07:34:34;;;;;;;21.10;11.50;;;;;;;7.85;96.89;102308.06;108155;1287;21998;-62
2023/12/17 07:37:00;;;;;;;18.40;10.50;;;;;;;7.92;97.17;102308.26;108080;1288;21984;-63
2023/12/17 07:39:26;;;;;;;20.70;12.30;;;;;;;7.96;97.16;102310.65;108079;1284;21994;-60
2023/12/17 07:41:53;;;;;;;18.40;11.20;;;;;;;8.02;97.10;102308.73;108123;1278;21985;-63
2023/12/17 07:44:18;;;;;;;20.40;12.60;;;;;;;8.07;97.18;102309.05;108143;1278;21985;-61
2023/12/17 07:46:44;;;;;;;21.00;11.60;;;;;;;8.13;97.05;102310.63;108086;1283;22000;-60
2023/12/17 07:49:10;;;;;;;22.00;11.50;;;;;;;8.19;97.08;102315.52;108262;1283;21984;-63
2023/12/17 07:51:38;;;;;;;20.90;11.50;;;;;;;8.25;97.30;102315.68;108126;1287;21983;-64
2023/12/17 07:54:05;;;;;;;17.20;10.60;;;;;;;8.30;97.18;102315.47;108189;1287;22033;-63
2023/12/17 07:56:32;;;;;;;17.40;11.10;;;;;;;8.37;97.20;102313.20;108173;1287;21988;-64
2023/12/17 07:58:58;;;;;;;23.80;12.10;;;;;;;8.43;97.03;102314.26;108124;1286;22020;-63
2023/12/17 08:01:28;;;;;;;20.40;12.20;;;;;;;8.49;97.14;102310.77;108138;1276;22029;-64
2023/12/17 08:03:53;;;;;;;19.50;11.50;;;;;;;8.54;97.11;102306.36;108205;1287;22005;-60
2023/12/17 08:06:19;;;;;;;24.20;14.80;;;;;;;8.58;97.44;102298.95;108150;1284;21995;-61
2023/12/17 08:08:47;;;;;;;26.20;16.20;;;;;;;8.66;97.84;102296.00;108113;1287;21993;-64
2023/12/17 08:11:13;;;;;;;20.90;12.70;;;;;;;8.74;97.75;102294.98;108153;1281;21984;-64
2023/12/17 08:13:38;;;;;;;21.40;13.30;;;;;;;8.83;97.93;102296.09;108108;1287;21988;-63
2023/12/17 08:16:05;;;;;;;34.40;19.70;;;;;;;8.92;97.79;102296.31;108085;1286;22000;-61
2023/12/17 08:18:31;;;;;;;21.00;12.50;;;;;;;9.02;97.65;102292.02;107411;1288;1002259;-61
2023/12/17 08:20:58;;;;;;;19.80;12.30;;;;;;;9.13;97.33;102288.09;108080;1287;21992;-64
2023/12/17 08:23:25;;;;;;;23.30;12.50;;;;;;;9.22;97.24;102286.38;108181;1281;24327;-62
2023/12/17 08:25:52;;;;;;;28.20;18.20;;;;;;;9.25;96.75;102288.03;108205;1283;22074;-61
2023/12/17 08:28:19;;;;;;;164.30;73.80;;;;;;;9.29;96.57;102281.44;108105;1287;21991;-62
2023/12/17 08:30:45;;;;;;;42.40;23.20;;;;;;;9.30;96.21;102278.83;108127;1287;22356;-64
2023/12/17 08:33:10;;;;;;;31.10;16.80;;;;;;;9.33;96.09;102277.33;108141;1288;22038;-64
2023/12/17 08:35:37;;;;;;;18.50;11.20;;;;;;;9.31;95.61;102279.39;108108;1288;21985;-64
2023/12/17 08:38:05;;;;;;;18.30;11.90;;;;;;;9.29;95.01;102277.92;108130;1276;22007;-63
2023/12/17 08:40:32;;;;;;;22.10;11.10;;;;;;;9.24;94.63;102275.73;107360;1288;1003176;-61
2023/12/17 08:42:57;;;;;;;19.70;11.00;;;;;;;9.21;94.15;102273.74;108169;1288;21993;-60
2023/12/17 08:45:23;;;;;;;18.90;10.90;;;;;;;9.18;94.26;102262.80;108165;1284;21988;-64
2023/12/17 08:47:49;;;;;;;19.10;10.20;;;;;;;9.26;95.08;102254.05;108170;1287;21962;-61
2023/12/17 08:50:15;;;;;;;15.30;10.80;;;;;;;9.35;95.90;102249.88;108167;1287;21988;-64
2023/12/17 08:52:40;;;;;;;19.40;12.10;;;;;;;9.48;95.99;102245.79;108104;1287;21983;-64
2023/12/17 08:55:06;;;;;;;16.30;10.20;;;;;;;9.62;95.93;102240.46;108123;1287;21992;-61
2023/12/17 08:57:32;;;;;;;15.90;9.80;;;;;;;9.79;96.54;102234.16;108119;1287;21989;-60
2023/12/17 08:59:57;;;;;;;16.70;10.50;;;;;;;9.93;95.99;102224.10;108202;1281;22169;-64
2023/12/17 09:02:23;;;;;;;18.20;10.60;;;;;;;10.03;94.81;102219.04;108095;1277;22459;-62
2023/12/17 09:04:51;;;;;;;15.80;10.50;;;;;;;10.12;94.23;102213.61;108130;1276;23423;-60
2023/12/17 09:07:17;;;;;;;16.70;10.50;;;;;;;10.22;93.52;102211.84;108118;1287;21986;-64
2023/12/17 09:09:43;;;;;;;17.50;10.00;;;;;;;10.28;93.21;102200.73;108086;1287;21993;-64
2023/12/17 09:12:09;;;;;;;16.20;9.70;;;;;;;10.35;93.27;102201.58;108088;1283;21996;-62
2023/12/17 09:14:36;;;;;;;16.10;9.40;;;;;;;10.47;94.03;102204.08;108139;1278;21987;-60
2023/12/17 09:17:02;;;;;;;18.80;11.30;;;;;;;10.53;92.56;102205.95;107350;1288;1002257;-64
2023/12/17 09:19:27;;;;;;;17.60;10.40;;;;;;;10.63;92.15;102201.20;108092;1287;21956;-63
2023/12/17 09:21:53;;;;;;;15.30;9.70;;;;;;;10.72;92.24;102196.25;108097;1288;21996;-64
2023/12/17 09:24:21;;;;;;;15.00;9.30;;;;;;;10.79;91.88;102194.96;108210;1277;21997;-63
2023/12/17 09:26:47;;;;;;;17.00;9.20;;;;;;;10.90;91.89;102189.86;108107;1283;21994;-61
2023/12/17 09:29:13;;;;;;;17.30;9.20;;;;;;;10.99;90.89;102183.15;108064;1280;23050;-62
2023/12/17 09:31:39;;;;;;;16.10;9.40;;;;;;;11.15;90.75;102174.94;108146;1281;21994;-64
2023/12/17 09:34:06;;;;;;;15.50;9.40;;;;;;;11.33;90.43;102170.62;108114;1286;21990;-64
2023/12/17 09:36:32;;;;;;;14.40;9.20;;;;;;;11.47;89.34;102170.63;108128;1281;21986;-65
2023/12/17 09:38:58;;;;;;;15.40;9.00;;;;;;;11.58;88.78;102164.24;108136;1276;21981;-62
2023/12/17 09:41:25;;;;;;;15.20;8.70;;;;;;;11.67;89.22;102158.02;108119;1281;21988;-62
2023/12/17 09:43:50;;;;;;;13.00;8.00;;;;;;;11.68;87.93;102160.52;108193;1287;21988;-65
2023/12/17 09:46:16;;;;;;;14.80;8.70;;;;;;;11.68;86.50;102163.48;108101;1274;21997;-62
2023/12/17 09:48:42;;;;;;;12.20;7.00;;;;;;;11.62;85.78;102161.84;108138;1278;23729;-62
2023/12/17 09:51:08;;;;;;;10.80;6.80;;;;;;;11.58;85.60;102160.73;108122;1287;21989;-65
2023/12/17 09:53:34;;;;;;;14.00;7.50;;;;;;;11.54;85.34;102160.85;108105;1276;21986;-63
2023/12/17 09:56:00;;;;;;;12.60;6.90;;;;;;;11.47;84.19;102156.39;108198;1287;21995;-64
2023/12/17 09:58:28;;;;;;;13.00;7.70;;;;;;;11.41;83.61;102154.03;108090;1275;21990;-65
2023/12/17 10:00:54;;;;;;;13.20;7.30;;;;;;;11.42;83.99;102151.74;107368;1288;1002976;-63
2023/12/17 10:03:20;;;;;;;12.10;7.20;;;;;;;11.51;85.71;102144.29;108105;1287;21987;-61
2023/12/17 10:05:52;;;;;;;11.60;6.80;;;;;;;11.54;85.06;102134.67;108122;1287;21951;-64
2023/12/17 10:08:18;;;;;;;11.80;6.40;;;;;;;11.65;85.46;102128.11;108141;1281;21989;-61
2023/12/17 10:10:44;;;;;;;10.90;6.60;;;;;;;11.69;84.05;102121.65;108159;1287;21987;-62
2023/12/17 10:13:19;;;;;;;10.10;6.10;;;;;;;11.75;84.62;102122.59;108133;1276;21987;-61
2023/12/17 10:15:54;;;;;;;13.10;7.10;;;;;;;11.75;83.66;102118.19;108129;1287;21986;-63
2023/12/17 10:18:21;;;;;;;10.20;6.40;;;;;;;11.76;83.03;102112.23;108181;1286;21991;-64
2023/12/17 10:20:47;;;;;;;11.50;6.60;;;;;;;11.73;82.75;102114.66;108132;1287;21996;-64
2023/12/17 10:23:13;;;;;;;10.00;6.60;;;;;;;11.77;83.93;102116.29;108125;1277;22076;-64
2023/12/17 10:25:39;;;;;;;10.90;7.00;;;;;;;11.78;83.49;102107.14;108135;1287;21994;-61
2023/12/17 10:28:05;;;;;;;11.40;6.50;;;;;;;11.80;82.59;102103.48;108092;1286;23894;-64
2023/12/17 10:30:32;;;;;;;13.70;6.10;;;;;;;11.89;84.26;102101.80;108132;1287;22001;-64
2023/12/17 10:33:01;;;;;;;11.20;6.80;;;;;;;11.97;84.28;102102.42;107994;1287;22101;-62
2023/12/17 10:35:28;;;;;;;12.10;7.00;;;;;;;12.04;83.87;102102.32;108110;1288;21989;-61
2023/12/17 10:38:05;;;;;;;12.20;6.20;;;;;;;12.12;84.02;102104.50;107935;1287;21979;-63
2023/12/17 10:40:32;;;;;;;10.10;6.70;;;;;;;12.21;84.27;102102.30;108070;1287;21997;-59
2023/12/17 10:42:59;;;;;;;12.20;6.50;;;;;;;12.28;82.61;102096.38;108139;1281;21991;-63
2023/12/17 10:45:25;;;;;;;10.50;6.50;;;;;;;12.31;81.70;102096.41;108111;1287;21998;-62
2023/12/17 10:47:52;;;;;;;11.20;6.30;;;;;;;12.28;79.34;102093.57;108147;1283;23768;-60
2023/12/17 10:50:19;;;;;;;11.30;6.20;;;;;;;12.26;78.59;102094.44;108221;1287;21997;-61
2023/12/17 10:52:45;;;;;;;9.80;6.30;;;;;;;12.25;78.95;102089.31;108101;1287;21987;-61
2023/12/17 10:55:11;;;;;;;8.40;5.20;;;;;;;12.25;78.82;102083.86;108022;1283;21991;-63
2023/12/17 10:57:37;;;;;;;9.80;6.00;;;;;;;12.21;76.96;102079.96;108073;1281;22006;-60
2023/12/17 11:00:04;;;;;;;10.00;4.80;;;;;;;12.19;77.67;102077.48;107885;1280;22026;-62
2023/12/17 11:02:31;;;;;;;10.00;5.80;;;;;;;12.13;77.39;102075.67;108150;1287;21983;-63
2023/12/17 11:04:58;;;;;;;8.30;5.40;;;;;;;12.11;78.86;102071.95;107865;1287;21989;-63